Time;durP1;ratioP1;P1;durP2;ratioP2;P2;SDS_P1;SDS_P2;PMS_P1;PMS_P2;Temp;Humidity;BMP_temperature;BMP_pressure;BME280_temperature;BME280_humidity;BME280_pressure;Samples;Min_cycle;Max_cycle;Signal;HPM_P1;HPM_P2
2021/11/29 09:40:27;;;;;;;11.93;3.70;;;;;;;3.61;83.68;97873.59;5127835;27;20565;-80
2021/11/29 09:42:55;;;;;;;6.90;3.37;;;;;;;4.35;78.31;97889.84;5106941;27;38758;-78
2021/11/29 09:45:26;;;;;;;4.27;3.77;;;;;;;5.15;75.70;97892.44;5089298;28;40647;-82
2021/11/29 09:47:54;;;;;;;2.73;2.37;;;;;;;5.79;72.66;97901.91;5106109;28;43211;-79
2021/11/29 09:50:22;;;;;;;3.57;2.50;;;;;;;6.23;69.23;97917.69;5090252;27;42116;-81
2021/11/29 09:52:50;;;;;;;5.00;2.43;;;;;;;6.61;67.82;97923.25;5106093;27;40166;-79
2021/11/29 09:55:23;;;;;;;4.40;2.80;;;;;;;6.90;66.00;97925.88;5106442;28;41126;-77
2021/11/29 09:57:56;;;;;;;3.57;2.63;;;;;;;7.04;64.67;97934.59;5106245;28;42796;-78
2021/11/29 10:00:28;;;;;;;5.77;2.80;;;;;;;7.16;63.18;97940.88;5105822;28;42341;-78
2021/11/29 10:02:59;;;;;;;3.20;2.67;;;;;;;7.15;62.52;97926.88;5107572;27;39053;-81
2021/11/29 10:05:27;;;;;;;3.90;2.63;;;;;;;7.07;60.62;97937.00;5108905;27;40663;-83
2021/11/29 10:07:55;;;;;;;6.00;3.50;;;;;;;7.09;61.19;97936.91;5110365;27;41763;-79
2021/11/29 10:10:25;;;;;;;6.10;2.90;;;;;;;7.00;60.30;97958.56;5127154;27;42370;-79
2021/11/29 10:12:57;;;;;;;4.33;3.00;;;;;;;7.05;60.51;97961.72;5102324;28;40032;-79
2021/11/29 10:15:28;;;;;;;2.77;2.13;;;;;;;7.15;61.12;97957.59;5106187;28;42679;-81
2021/11/29 10:18:10;;;;;;;4.67;2.60;;;;;;;7.38;60.43;97964.03;5088368;28;41887;-78
2021/11/29 10:20:55;;;;;;;5.67;3.13;;;;;;;7.51;59.16;97965.81;5119530;27;42211;-78
2021/11/29 10:23:35;;;;;;;6.63;3.33;;;;;;;7.45;59.92;97967.97;5126988;27;39624;-78
2021/11/29 10:26:06;;;;;;;3.50;2.73;;;;;;;7.42;60.21;97971.63;5117425;27;41886;-79
2021/11/29 10:28:38;;;;;;;4.77;2.63;;;;;;;7.43;60.80;97964.56;5107046;28;43903;-78
2021/11/29 10:31:16;;;;;;;3.87;2.70;;;;;;;7.35;59.85;97975.63;5105389;28;42909;-78
2021/11/29 10:33:53;;;;;;;5.00;2.60;;;;;;;7.18;60.00;97966.13;5105594;28;39949;-78
2021/11/29 10:36:23;;;;;;;6.27;2.70;;;;;;;7.27;59.95;97991.06;5104769;28;40813;-82
2021/11/29 10:38:54;;;;;;;4.27;2.97;;;;;;;7.15;60.19;97978.66;5122617;27;42678;-78
2021/11/29 10:41:24;;;;;;;2.73;2.23;;;;;;;6.89;59.99;97975.03;5105497;28;42073;-82
2021/11/29 10:43:53;;;;;;;4.00;2.80;;;;;;;6.83;60.55;97983.28;5106250;28;40025;-78
2021/11/29 10:46:24;;;;;;;4.73;3.40;;;;;;;6.81;60.39;97986.00;5087479;28;40300;-83
2021/11/29 10:48:55;;;;;;;4.17;2.87;;;;;;;6.66;60.72;97986.13;5107141;27;41723;-80
2021/11/29 10:51:23;;;;;;;3.97;2.80;;;;;;;6.48;61.42;97961.75;5094355;28;43052;-79
2021/11/29 10:53:55;;;;;;;3.97;2.90;;;;;;;6.60;61.45;97989.94;5092100;28;39929;-78
2021/11/29 10:56:24;;;;;;;5.07;3.33;;;;;;;6.55;61.36;97988.53;5090276;28;40840;-78
2021/11/29 10:58:57;;;;;;;4.00;3.10;;;;;;;6.50;61.25;97986.19;5107455;28;43823;-77
2021/11/29 11:01:40;;;;;;;4.47;2.27;;;;;;;6.43;60.90;97995.34;5073911;28;41280;-78
2021/11/29 11:04:09;;;;;;;3.37;3.07;;;;;;;6.39;61.77;97988.59;5074876;28;39022;-80
2021/11/29 11:06:38;;;;;;;3.97;2.27;;;;;;;6.40;61.30;97995.56;5086922;28;41325;-77
2021/11/29 11:09:15;;;;;;;4.50;3.20;;;;;;;6.31;60.75;97985.56;5072157;28;42795;-79
2021/11/29 11:11:44;;;;;;;4.10;3.23;;;;;;;6.44;61.02;97997.06;5094818;28;42276;-80
2021/11/29 11:14:16;;;;;;;4.10;2.53;;;;;;;6.46;60.78;98000.44;5093893;28;38866;-77
2021/11/29 11:16:51;;;;;;;4.50;2.20;;;;;;;6.57;60.21;98002.44;5098711;28;41943;-76
2021/11/29 11:19:31;;;;;;;3.77;2.60;;;;;;;6.55;59.72;98010.44;5101478;28;41682;-78
2021/11/29 11:22:00;;;;;;;4.17;2.20;;;;;;;6.57;59.79;98013.78;5074074;28;41206;-77
2021/11/29 11:24:31;;;;;;;2.70;2.30;;;;;;;6.64;60.57;98009.03;5074806;28;39357;-77
2021/11/29 11:27:00;;;;;;;3.23;2.43;;;;;;;6.74;60.92;98005.75;5073877;28;41922;-79
2021/11/29 11:29:50;;;;;;;4.03;2.60;;;;;;;6.74;61.03;98016.28;5092119;28;43905;-79
2021/11/29 11:32:30;;;;;;;3.00;2.13;;;;;;;6.64;60.11;98014.28;5072545;28;42468;-77
2021/11/29 11:35:00;;;;;;;6.80;2.17;;;;;;;6.54;60.95;98013.16;5090905;28;39924;-78
2021/11/29 11:37:30;;;;;;;4.40;2.67;;;;;;;6.44;60.88;98016.31;5073595;28;40685;-77
2021/11/29 11:39:59;;;;;;;3.13;2.23;;;;;;;6.40;60.80;98016.59;5091719;28;42732;-76
2021/11/29 11:42:27;;;;;;;3.87;2.40;;;;;;;6.28;61.32;98009.44;5073115;28;41230;-77
2021/11/29 11:44:57;;;;;;;3.00;2.63;;;;;;;6.19;61.37;98021.31;5074263;28;40026;-79
2021/11/29 11:47:27;;;;;;;3.63;2.60;;;;;;;6.12;61.61;98018.22;5105401;28;40640;-79
2021/11/29 11:49:55;;;;;;;2.90;2.63;;;;;;;5.93;62.08;98004.44;5093944;28;42730;-78
2021/11/29 11:52:23;;;;;;;6.40;2.63;;;;;;;6.03;62.77;98015.25;5076777;28;41450;-79
2021/11/29 11:54:56;;;;;;;3.00;2.33;;;;;;;5.99;62.87;98004.06;5107834;28;39982;-78
2021/11/29 11:57:27;;;;;;;3.10;2.37;;;;;;;6.17;62.64;98014.47;5072829;28;42496;-80
2021/11/29 12:00:14;;;;;;;4.10;2.40;;;;;;;6.11;62.94;98021.75;5091232;28;43154;-79
2021/11/29 12:03:05;;;;;;;4.00;2.27;;;;;;;6.04;62.54;98030.94;5088580;28;41053;-79
2021/11/29 12:05:39;;;;;;;2.60;2.20;;;;;;;6.08;62.50;98032.44;5076871;28;39069;-79
2021/11/29 12:08:31;;;;;;;3.20;2.60;;;;;;;6.07;62.54;98024.66;5110177;28;42680;-77
2021/11/29 12:10:59;;;;;;;2.73;2.30;;;;;;;6.03;61.77;98021.38;5089674;28;41698;-79
2021/11/29 12:13:27;;;;;;;2.83;2.57;;;;;;;6.02;62.35;98024.94;5119569;27;42917;-80
2021/11/29 12:15:58;;;;;;;4.90;2.50;;;;;;;6.07;62.67;98014.13;5085751;28;38733;-79
2021/11/29 12:18:47;;;;;;;2.87;2.23;;;;;;;6.19;62.49;98023.09;5073579;28;41800;-80
2021/11/29 12:21:19;;;;;;;4.73;2.20;;;;;;;6.19;62.48;98012.56;5074180;28;41764;-78
2021/11/29 12:23:53;;;;;;;3.43;2.30;;;;;;;6.26;62.35;98020.03;5073684;28;41332;-79
2021/11/29 12:27:00;;;;;;;3.10;2.10;;;;;;;6.37;61.76;98027.28;5090100;28;39848;-82
2021/11/29 12:29:53;;;;;;;2.27;2.10;;;;;;;7.34;60.74;98016.06;5073591;28;41122;-78
2021/11/29 12:32:25;;;;;;;2.73;1.70;;;;;;;7.66;58.96;98052.72;5071749;28;43111;-82
2021/11/29 12:34:59;;;;;;;2.80;2.50;;;;;;;7.52;58.74;98056.22;5067683;28;41813;-79
2021/11/29 12:37:30;;;;;;;2.37;1.90;;;;;;;7.33;58.74;98068.81;5102229;28;39984;-77
2021/11/29 12:40:01;;;;;;;2.60;1.97;;;;;;;7.10;59.21;98062.34;5072943;28;40515;-77
2021/11/29 12:42:51;;;;;;;2.33;2.07;;;;;;;6.91;59.83;98053.88;5090205;28;41948;-79
2021/11/29 12:45:21;;;;;;;3.40;1.63;;;;;;;6.75;60.55;98052.16;5072227;28;41411;-81
2021/11/29 12:47:57;;;;;;;2.33;1.60;;;;;;;6.57;60.40;98050.63;5089846;28;39148;-79
2021/11/29 12:50:51;;;;;;;1.50;1.37;;;;;;;6.40;60.57;98054.25;5072196;28;42137;-78
2021/11/29 12:53:23;;;;;;;4.13;2.20;;;;;;;6.27;61.15;98053.28;5089092;28;41675;-79
2021/11/29 12:55:54;;;;;;;3.00;2.23;;;;;;;6.15;62.31;98042.63;5089064;28;43069;-78
2021/11/29 12:58:26;;;;;;;4.60;3.13;;;;;;;6.10;62.09;98045.50;5088828;28;39802;-81
2021/11/29 13:01:17;;;;;;;3.30;1.87;;;;;;;6.02;62.97;98038.06;5070588;28;40312;-77
2021/11/29 13:03:50;;;;;;;3.00;2.30;;;;;;;5.94;63.42;98045.53;5087944;28;42194;-77
2021/11/29 13:06:20;;;;;;;2.63;2.17;;;;;;;5.97;63.45;98042.72;5073820;28;40998;-76
2021/11/29 13:08:51;;;;;;;2.37;2.10;;;;;;;5.97;63.57;98040.09;5087945;28;38932;-78
2021/11/29 13:11:26;;;;;;;2.00;1.80;;;;;;;6.03;63.70;98039.78;5087803;28;40987;-76
2021/11/29 13:13:59;;;;;;;2.07;1.70;;;;;;;6.03;63.66;98029.25;5089297;28;42965;-77
2021/11/29 13:16:42;;;;;;;1.90;1.70;;;;;;;6.02;63.42;98024.94;5074856;28;41180;-77
2021/11/29 13:19:21;;;;;;;3.10;1.90;;;;;;;6.07;63.41;98041.25;5077903;28;39933;-80
2021/11/29 13:21:52;;;;;;;2.10;1.90;;;;;;;5.78;64.03;98034.19;5087954;28;41170;-78
2021/11/29 13:24:29;;;;;;;2.03;1.77;;;;;;;5.47;65.73;98028.91;5087696;28;42379;-79
2021/11/29 13:27:01;;;;;;;3.27;1.60;;;;;;;5.45;66.18;98036.03;5086781;28;43100;-79
2021/11/29 13:29:30;;;;;;;2.10;1.70;;;;;;;5.35;67.31;98039.16;5088046;28;40005;-78
2021/11/29 13:32:00;;;;;;;2.43;1.53;;;;;;;5.20;67.69;98032.13;5088937;28;41827;-81
2021/11/29 13:34:34;;;;;;;2.87;1.73;;;;;;;5.17;68.49;98041.97;5088774;28;42846;-80
2021/11/29 13:37:04;;;;;;;2.20;1.60;;;;;;;5.12;68.87;98036.94;5088268;28;41512;-79
2021/11/29 13:39:36;;;;;;;2.53;1.83;;;;;;;5.00;69.39;98042.84;5086426;28;40023;-79
2021/11/29 13:42:20;;;;;;;3.50;1.90;;;;;;;4.91;70.06;98045.97;5084534;28;41861;-79
2021/11/29 13:44:51;;;;;;;2.83;1.80;;;;;;;4.83;70.55;98048.13;5070629;28;42135;-77
2021/11/29 13:47:21;;;;;;;3.53;2.20;;;;;;;4.75;71.04;98043.28;5086806;28;40956;-77
2021/11/29 13:49:58;;;;;;;3.03;1.57;;;;;;;4.67;71.97;98051.56;5087882;28;38980;-77
2021/11/29 13:52:26;;;;;;;2.00;1.80;;;;;;;4.62;72.14;98056.19;5070542;28;41796;-77
2021/11/29 13:54:56;;;;;;;2.53;1.40;;;;;;;4.62;72.37;98056.19;5071180;28;41970;-77
2021/11/29 13:57:32;;;;;;;1.70;1.60;;;;;;;4.58;72.48;98059.88;5087646;28;42184;-77
2021/11/29 14:00:17;;;;;;;2.40;1.80;;;;;;;4.56;72.50;98061.75;5054761;28;38848;-77
2021/11/29 14:02:47;;;;;;;4.40;1.60;;;;;;;4.53;72.79;98061.91;5070021;28;40983;-79
2021/11/29 14:05:27;;;;;;;2.80;1.83;;;;;;;4.46;73.52;98068.38;5087640;28;41953;-77
2021/11/29 14:07:57;;;;;;;1.97;1.87;;;;;;;4.46;73.53;98076.22;5073038;28;41078;-76
2021/11/29 14:10:36;;;;;;;2.10;1.70;;;;;;;4.44;73.42;98078.09;5079704;28;39924;-77
2021/11/29 14:13:04;;;;;;;1.80;1.47;;;;;;;4.39;73.66;98074.84;5064670;28;41821;-80
2021/11/29 14:15:51;;;;;;;1.80;1.03;;;;;;;4.36;73.95;98077.63;5085647;28;41846;-75
2021/11/29 14:18:24;;;;;;;1.67;1.40;;;;;;;4.34;73.74;98082.09;5086843;28;42675;-74
2021/11/29 14:20:55;;;;;;;1.97;1.50;;;;;;;4.33;73.92;98090.88;5069416;28;39748;-76
2021/11/29 14:23:39;;;;;;;3.47;1.93;;;;;;;4.33;74.10;98093.50;5089909;28;40777;-76
2021/11/29 14:26:08;;;;;;;2.57;1.53;;;;;;;4.19;74.58;98068.00;5094148;27;42897;-77
2021/11/29 14:28:37;;;;;;;2.00;1.67;;;;;;;4.30;74.01;98101.53;5088192;28;41455;-78
2021/11/29 14:31:06;;;;;;;2.57;1.80;;;;;;;4.33;74.42;98103.97;5082080;27;40285;-76
2021/11/29 14:33:36;;;;;;;2.07;1.60;;;;;;;4.23;74.58;98089.63;5096830;28;40711;-77
2021/11/29 14:36:25;;;;;;;2.80;1.70;;;;;;;4.22;74.63;98083.53;5112203;27;42730;-83
2021/11/29 14:38:53;;;;;;;2.23;1.80;;;;;;;4.34;74.65;98109.16;5077484;28;41198;-80
2021/11/29 14:41:21;;;;;;;3.33;1.50;;;;;;;4.36;74.98;98110.84;5086229;27;39109;-76
2021/11/29 14:43:50;;;;;;;1.93;1.37;;;;;;;4.37;74.84;98118.63;5098004;27;41096;-76
2021/11/29 14:46:29;;;;;;;1.40;1.30;;;;;;;4.36;75.04;98111.69;5092554;27;42845;-75
2021/11/29 14:49:22;;;;;;;2.27;1.50;;;;;;;4.34;74.95;98119.63;5122205;27;42315;-78
2021/11/29 14:51:59;;;;;;;2.37;1.87;;;;;;;4.29;75.03;98133.91;5111989;27;39887;-80
2021/11/29 14:54:28;;;;;;;2.87;2.20;;;;;;;4.25;74.93;98127.94;5093629;28;42683;-78
2021/11/29 14:56:56;;;;;;;2.20;1.40;;;;;;;4.19;75.06;98125.66;5083946;27;42813;-77
2021/11/29 14:59:27;;;;;;;3.67;1.80;;;;;;;4.24;75.08;98143.75;5097734;28;42914;-77
2021/11/29 15:01:57;;;;;;;2.33;2.13;;;;;;;4.25;74.86;98148.06;5079123;27;39137;-77
2021/11/29 15:04:28;;;;;;;4.33;2.07;;;;;;;4.17;75.12;98131.88;5095657;27;42144;-79
2021/11/29 15:07:04;;;;;;;3.97;2.23;;;;;;;4.24;74.87;98147.22;5084638;28;41951;-77
2021/11/29 15:09:32;;;;;;;1.80;1.60;;;;;;;4.19;74.91;98156.25;5092795;27;41179;-80
2021/11/29 15:12:00;;;;;;;2.80;1.50;;;;;;;4.06;74.92;98140.25;5084272;28;39977;-81
2021/11/29 15:14:32;;;;;;;2.57;1.60;;;;;;;4.01;74.96;98130.91;5096527;27;41132;-76
2021/11/29 15:17:00;;;;;;;1.87;1.23;;;;;;;4.00;75.20;98139.69;5128666;27;42835;-77
2021/11/29 15:19:30;;;;;;;2.97;1.80;;;;;;;4.07;75.39;98162.06;5122235;27;43056;-78
2021/11/29 15:22:00;;;;;;;2.87;1.70;;;;;;;4.02;75.90;98166.66;5060702;28;38685;-77
